Time;durP1;ratioP1;P1;durP2;ratioP2;P2;SDS_P1;SDS_P2;PMS_P1;PMS_P2;Temp;Humidity;BMP_temperature;BMP_pressure;BME280_temperature;BME280_humidity;BME280_pressure;Samples;Min_cycle;Max_cycle;Signal;HPM_P1;HPM_P2
2021/05/15 00:01:21;;;;;;;1.58;1.48;;;;;;;;;;5022357;28;20536;-54
2021/05/15 00:03:47;;;;;;;3.28;1.67;;;;;;;;;;5019820;28;20030;-54
2021/05/15 00:06:12;;;;;;;2.28;1.85;;;;;;;;;;5029155;28;20516;-55
2021/05/15 00:08:38;;;;;;;5.55;2.05;;;;;;;;;;5026475;28;20037;-55
2021/05/15 00:11:06;;;;;;;1.63;1.63;;;;;;;;;;5030336;28;20078;-54
2021/05/15 00:13:31;;;;;;;1.95;1.40;;;;;;;;;;5026493;28;20366;-54
2021/05/15 00:15:57;;;;;;;1.60;1.60;;;;;;;;;;5028975;28;20160;-54
2021/05/15 00:18:23;;;;;;;1.73;1.50;;;;;;;;;;5029552;28;20497;-53
2021/05/15 00:20:49;;;;;;;2.22;1.73;;;;;;;;;;5026694;28;20029;-56
2021/05/15 00:23:14;;;;;;;2.22;1.38;;;;;;;;;;5027617;28;20560;-55
2021/05/15 00:25:40;;;;;;;3.45;1.70;;;;;;;;;;5028133;28;20516;-54
2021/05/15 00:28:05;;;;;;;2.22;1.30;;;;;;;;;;5018796;28;20045;-54
2021/05/15 00:30:31;;;;;;;1.30;1.20;;;;;;;;;;5019663;28;20370;-54
2021/05/15 00:32:56;;;;;;;1.23;1.23;;;;;;;;;;5019886;28;20033;-55
2021/05/15 00:35:22;;;;;;;2.42;1.95;;;;;;;;;;5030591;28;20064;-53
2021/05/15 00:37:47;;;;;;;1.77;1.60;;;;;;;;;;5024168;28;20061;-54
2021/05/15 00:40:13;;;;;;;1.95;1.95;;;;;;;;;;5017584;28;20036;-54
2021/05/15 00:42:39;;;;;;;1.75;1.75;;;;;;;;;;5023598;28;20156;-54
2021/05/15 00:45:05;;;;;;;2.42;2.33;;;;;;;;;;5026495;28;20068;-53
2021/05/15 00:47:31;;;;;;;1.60;1.60;;;;;;;;;;5028655;28;20037;-55
2021/05/15 00:49:56;;;;;;;1.60;1.60;;;;;;;;;;5026549;28;20294;-54
2021/05/15 00:52:22;;;;;;;2.28;1.55;;;;;;;;;;5027431;28;20038;-53
2021/05/15 00:54:50;;;;;;;1.70;1.60;;;;;;;;;;5018492;28;20022;-54
2021/05/15 00:57:15;;;;;;;2.35;1.77;;;;;;;;;;5021565;28;20018;-53
2021/05/15 00:59:41;;;;;;;1.48;1.40;;;;;;;;;;5028724;28;20390;-55
2021/05/15 01:02:08;;;;;;;1.52;1.52;;;;;;;;;;5027977;28;20029;-55
2021/05/15 01:04:34;;;;;;;1.75;1.65;;;;;;;;;;5027552;28;20025;-53
2021/05/15 01:07:00;;;;;;;1.50;1.45;;;;;;;;;;5029392;28;20033;-55
2021/05/15 01:09:26;;;;;;;2.15;1.60;;;;;;;;;;5028017;28;20050;-54
2021/05/15 01:11:51;;;;;;;1.40;1.40;;;;;;;;;;5019424;28;20120;-52
2021/05/15 01:14:17;;;;;;;1.50;1.40;;;;;;;;;;5027570;28;20171;-54
2021/05/15 01:16:43;;;;;;;1.42;1.30;;;;;;;;;;5032887;28;20025;-54
2021/05/15 01:19:09;;;;;;;3.20;1.48;;;;;;;;;;5022619;28;20117;-52
2021/05/15 01:21:35;;;;;;;1.38;1.38;;;;;;;;;;5030128;28;20343;-52
2021/05/15 01:24:01;;;;;;;1.73;1.65;;;;;;;;;;5024426;28;20029;-55
2021/05/15 01:26:29;;;;;;;105.15;5.57;;;;;;;;;;5025295;28;20574;-56
2021/05/15 01:28:59;;;;;;;229.05;8.63;;;;;;;;;;5028688;28;20029;-55
2021/05/15 01:31:25;;;;;;;2.50;1.42;;;;;;;;;;5031849;28;20033;-55
2021/05/15 01:33:51;;;;;;;2.58;1.70;;;;;;;;;;5029533;28;20017;-55
2021/05/15 01:36:17;;;;;;;4.63;1.60;;;;;;;;;;5031488;28;20091;-55
2021/05/15 01:38:43;;;;;;;2.50;1.38;;;;;;;;;;5025185;28;20030;-55
2021/05/15 01:41:10;;;;;;;1.52;1.52;;;;;;;;;;5024605;28;20452;-55
2021/05/15 01:43:35;;;;;;;2.50;1.33;;;;;;;;;;5025910;28;20038;-55
2021/05/15 01:46:02;;;;;;;1.20;1.20;;;;;;;;;;5027555;28;20320;-54
2021/05/15 01:48:28;;;;;;;3.17;1.10;;;;;;;;;;5015538;28;20052;-55
2021/05/15 01:50:59;;;;;;;1.58;1.30;;;;;;;;;;5030794;28;20084;-55
2021/05/15 01:53:26;;;;;;;1.20;1.20;;;;;;;;;;5031485;28;20123;-53
2021/05/15 01:55:52;;;;;;;1.20;1.20;;;;;;;;;;5017414;28;20378;-55
2021/05/15 01:58:17;;;;;;;1.60;1.20;;;;;;;;;;5026479;28;20025;-56
2021/05/15 02:00:43;;;;;;;4.22;1.10;;;;;;;;;;5028156;28;20033;-55
2021/05/15 02:03:08;;;;;;;1.77;1.25;;;;;;;;;;5031685;28;20037;-56
2021/05/15 02:05:34;;;;;;;2.15;1.20;;;;;;;;;;5030383;28;20056;-55
2021/05/15 02:07:59;;;;;;;1.10;1.10;;;;;;;;;;5032393;28;20109;-54
2021/05/15 02:10:25;;;;;;;1.30;1.30;;;;;;;;;;5028355;28;20035;-54
2021/05/15 02:12:50;;;;;;;1.70;1.20;;;;;;;;;;5024636;28;20057;-53
2021/05/15 02:15:16;;;;;;;1.58;1.20;;;;;;;;;;5022888;28;20049;-55
2021/05/15 02:17:41;;;;;;;2.20;1.10;;;;;;;;;;5022560;28;20037;-54
2021/05/15 02:20:07;;;;;;;1.00;1.00;;;;;;;;;;5025783;28;20040;-55
2021/05/15 02:22:33;;;;;;;1.10;1.10;;;;;;;;;;5024772;28;20588;-55
2021/05/15 02:24:58;;;;;;;1.33;1.10;;;;;;;;;;5018204;28;20037;-55
2021/05/15 02:27:24;;;;;;;1.15;1.15;;;;;;;;;;5021021;28;20513;-54
2021/05/15 02:29:50;;;;;;;1.00;1.00;;;;;;;;;;5030296;28;20029;-54
2021/05/15 02:32:15;;;;;;;1.10;1.10;;;;;;;;;;5015715;28;20045;-55
2021/05/15 02:34:41;;;;;;;3.95;1.13;;;;;;;;;;5028137;28;20513;-54
2021/05/15 02:37:06;;;;;;;1.27;1.27;;;;;;;;;;5031292;28;20021;-53
2021/05/15 02:39:32;;;;;;;1.10;1.10;;;;;;;;;;5031907;28;20052;-55
2021/05/15 02:41:57;;;;;;;1.15;1.15;;;;;;;;;;5027579;28;20143;-53
2021/05/15 02:44:23;;;;;;;1.38;1.10;;;;;;;;;;5023798;28;20026;-54
2021/05/15 02:46:48;;;;;;;1.05;1.05;;;;;;;;;;5025375;28;20025;-53
2021/05/15 02:49:13;;;;;;;2.08;1.17;;;;;;;;;;5016637;28;20050;-54
2021/05/15 02:51:39;;;;;;;1.10;1.10;;;;;;;;;;5030700;28;20036;-54
2021/05/15 02:54:05;;;;;;;1.10;1.10;;;;;;;;;;5029614;28;20021;-54
2021/05/15 02:56:30;;;;;;;2.78;1.30;;;;;;;;;;5027831;28;20417;-53
2021/05/15 02:58:55;;;;;;;1.20;1.20;;;;;;;;;;5024355;28;20041;-55
2021/05/15 03:01:21;;;;;;;0.90;0.90;;;;;;;;;;5014591;28;20026;-55
2021/05/15 03:03:47;;;;;;;1.38;1.30;;;;;;;;;;5030411;28;20068;-56
2021/05/15 03:06:12;;;;;;;3.00;0.98;;;;;;;;;;5028451;28;20029;-53
2021/05/15 03:08:38;;;;;;;1.30;1.15;;;;;;;;;;5031643;28;20525;-53
2021/05/15 03:11:03;;;;;;;1.35;1.10;;;;;;;;;;5025115;28;20169;-53
2021/05/15 03:13:29;;;;;;;3.65;1.50;;;;;;;;;;5020718;28;20033;-56
2021/05/15 03:15:54;;;;;;;1.45;1.10;;;;;;;;;;5025652;28;20509;-55
2021/05/15 03:18:20;;;;;;;1.20;1.20;;;;;;;;;;5029258;28;20048;-53
2021/05/15 03:20:45;;;;;;;1.63;1.15;;;;;;;;;;5030422;28;20411;-54
2021/05/15 03:23:12;;;;;;;1.10;1.10;;;;;;;;;;5026752;28;20580;-54
2021/05/15 03:25:38;;;;;;;2.45;1.20;;;;;;;;;;5028442;28;20033;-53
2021/05/15 03:28:04;;;;;;;1.15;1.15;;;;;;;;;;5030840;28;20116;-55
2021/05/15 03:30:29;;;;;;;1.13;1.10;;;;;;;;;;5022065;28;20052;-55
2021/05/15 03:32:55;;;;;;;1.40;1.30;;;;;;;;;;5031131;28;20512;-54
2021/05/15 03:35:20;;;;;;;1.10;1.10;;;;;;;;;;5022463;28;20410;-55
2021/05/15 03:37:46;;;;;;;1.10;1.10;;;;;;;;;;5015949;28;20075;-55
2021/05/15 03:40:12;;;;;;;1.30;1.30;;;;;;;;;;5030493;28;20533;-55
2021/05/15 03:42:38;;;;;;;4.40;1.42;;;;;;;;;;5025989;28;20025;-55
2021/05/15 03:45:04;;;;;;;1.45;1.45;;;;;;;;;;5022746;28;20049;-53
2021/05/15 03:47:30;;;;;;;1.70;1.58;;;;;;;;;;5025446;28;20092;-53
2021/05/15 03:49:55;;;;;;;1.52;1.52;;;;;;;;;;5028791;28;20458;-54
2021/05/15 03:52:21;;;;;;;1.75;1.45;;;;;;;;;;5030258;28;20410;-55
2021/05/15 03:54:46;;;;;;;16.40;1.73;;;;;;;;;;5028097;28;20574;-54
2021/05/15 03:57:12;;;;;;;1.42;1.30;;;;;;;;;;5027359;28;20027;-54
2021/05/15 03:59:38;;;;;;;2.58;1.35;;;;;;;;;;5030119;28;20030;-54
2021/05/15 04:02:03;;;;;;;1.40;1.40;;;;;;;;;;5028051;28;20033;-54
2021/05/15 04:04:29;;;;;;;1.52;1.38;;;;;;;;;;5030054;28;20040;-54
2021/05/15 04:06:55;;;;;;;2.22;1.80;;;;;;;;;;5028013;28;20584;-54
2021/05/15 04:09:20;;;;;;;1.60;1.60;;;;;;;;;;5012987;28;20083;-55
2021/05/15 04:11:46;;;;;;;25.63;2.72;;;;;;;;;;5027363;28;20095;-55
2021/05/15 04:17:29;;;;;;;57.17;4.38;;;;;;;;;;5016564;28;20120;-54
2021/05/15 04:19:35;;;;;;;111.97;6.22;;;;;;;;;;5023279;28;20042;-55
2021/05/15 04:22:01;;;;;;;66.78;4.78;;;;;;;;;;5014613;28;20022;-55
2021/05/15 04:24:26;;;;;;;111.82;6.18;;;;;;;;;;5018803;28;20498;-54
2021/05/15 04:26:56;;;;;;;154.93;8.05;;;;;;;;;;5020727;28;20108;-56
2021/05/15 04:29:22;;;;;;;37.25;3.85;;;;;;;;;;5030135;28;20030;-55
2021/05/15 04:31:48;;;;;;;86.38;5.05;;;;;;;;;;5025329;28;20120;-55
2021/05/15 04:34:14;;;;;;;73.97;4.10;;;;;;;;;;5029411;28;20038;-55
2021/05/15 04:36:40;;;;;;;44.45;3.80;;;;;;;;;;5029102;28;20033;-53
2021/05/15 04:39:06;;;;;;;5.10;2.30;;;;;;;;;;5027525;28;20137;-55
2021/05/15 04:41:32;;;;;;;3.08;2.50;;;;;;;;;;5029879;28;20022;-53
2021/05/15 04:43:58;;;;;;;2.13;2.03;;;;;;;;;;5028442;28;20045;-55
2021/05/15 04:46:23;;;;;;;1.92;1.70;;;;;;;;;;5020656;28;20041;-56
2021/05/15 04:48:49;;;;;;;2.78;1.88;;;;;;;;;;5021875;28;20026;-55
2021/05/15 04:51:14;;;;;;;1.65;1.65;;;;;;;;;;5024127;28;20083;-54
2021/05/15 04:53:40;;;;;;;1.77;1.50;;;;;;;;;;5032565;28;20470;-54
2021/05/15 04:56:08;;;;;;;2.35;2.25;;;;;;;;;;5030290;28;20493;-55
2021/05/15 04:58:34;;;;;;;4.15;1.80;;;;;;;;;;5029575;28;20441;-56
2021/05/15 05:01:00;;;;;;;3.30;1.77;;;;;;;;;;5029691;28;20026;-54
2021/05/15 05:03:25;;;;;;;2.50;2.40;;;;;;;;;;5026306;28;20563;-56
2021/05/15 05:05:51;;;;;;;2.05;1.60;;;;;;;;;;5017129;28;20125;-53
2021/05/15 05:08:17;;;;;;;1.75;1.75;;;;;;;;;;5030241;28;20052;-54
2021/05/15 05:10:43;;;;;;;3.90;1.83;;;;;;;;;;5030069;28;20045;-53
2021/05/15 05:13:08;;;;;;;1.63;1.52;;;;;;;;;;5033506;28;20064;-56
2021/05/15 05:15:34;;;;;;;2.17;2.03;;;;;;;;;;5031581;28;20429;-56
2021/05/15 05:17:59;;;;;;;1.88;1.88;;;;;;;;;;5027909;28;20040;-54
2021/05/15 05:20:25;;;;;;;3.08;1.67;;;;;;;;;;5030237;28;20041;-56
2021/05/15 05:22:51;;;;;;;3.17;2.90;;;;;;;;;;5031318;28;20029;-52
2021/05/15 05:25:17;;;;;;;2.20;2.10;;;;;;;;;;5019895;28;20030;-47
2021/05/15 05:27:47;;;;;;;3.75;2.25;;;;;;;;;;5026666;28;20551;-51
2021/05/15 05:30:13;;;;;;;2.40;2.30;;;;;;;;;;5015432;28;20037;-52
2021/05/15 05:32:39;;;;;;;2.45;2.28;;;;;;;;;;5031265;28;20093;-50
2021/05/15 05:35:05;;;;;;;3.15;1.88;;;;;;;;;;5031860;28;20125;-51
2021/05/15 05:37:30;;;;;;;2.00;2.00;;;;;;;;;;5018163;28;20563;-50
2021/05/15 05:39:56;;;;;;;1.80;1.80;;;;;;;;;;5027039;28;20017;-49
2021/05/15 05:42:21;;;;;;;1.50;1.50;;;;;;;;;;5032701;28;20026;-51
2021/05/15 05:44:47;;;;;;;2.13;2.13;;;;;;;;;;5023556;28;20107;-51
2021/05/15 05:47:12;;;;;;;1.60;1.60;;;;;;;;;;5026671;28;20504;-52
2021/05/15 05:49:38;;;;;;;2.03;1.80;;;;;;;;;;5023103;28;20048;-52
2021/05/15 05:52:04;;;;;;;2.38;2.13;;;;;;;;;;5025168;28;20028;-47
2021/05/15 05:54:29;;;;;;;1.30;1.30;;;;;;;;;;5015029;28;20673;-50
2021/05/15 05:56:55;;;;;;;1.73;1.73;;;;;;;;;;5024158;28;20029;-51
2021/05/15 05:59:20;;;;;;;2.40;1.75;;;;;;;;;;5021074;28;20021;-48
2021/05/15 06:01:46;;;;;;;1.80;1.70;;;;;;;;;;5028123;28;20034;-51
2021/05/15 06:04:11;;;;;;;1.80;1.70;;;;;;;;;;5026116;28;20021;-48
2021/05/15 06:06:37;;;;;;;1.73;1.63;;;;;;;;;;5014901;28;20075;-49
2021/05/15 06:09:04;;;;;;;1.80;1.80;;;;;;;;;;5022721;28;20109;-51
2021/05/15 06:11:29;;;;;;;1.70;1.60;;;;;;;;;;5020942;28;20022;-48
2021/05/15 06:13:55;;;;;;;2.97;2.45;;;;;;;;;;5031251;28;20484;-52
2021/05/15 06:16:20;;;;;;;2.25;2.17;;;;;;;;;;5025840;28;20033;-51
2021/05/15 06:18:46;;;;;;;2.17;2.15;;;;;;;;;;5015439;28;20040;-47
2021/05/15 06:21:12;;;;;;;2.10;2.10;;;;;;;;;;5028739;28;20052;-49
2021/05/15 06:23:37;;;;;;;2.05;2.05;;;;;;;;;;5030526;28;20179;-50
2021/05/15 06:26:08;;;;;;;1.50;1.40;;;;;;;;;;5032261;28;20561;-49
2021/05/15 06:28:35;;;;;;;1.48;1.45;;;;;;;;;;5028843;28;20477;-51
2021/05/15 06:31:01;;;;;;;2.28;1.40;;;;;;;;;;5030727;28;20033;-51
2021/05/15 06:33:26;;;;;;;1.80;1.70;;;;;;;;;;5029523;28;20112;-47
2021/05/15 06:35:52;;;;;;;2.35;1.83;;;;;;;;;;5022143;28;20116;-46
2021/05/15 06:38:18;;;;;;;1.52;1.52;;;;;;;;;;5035899;28;20033;-48
2021/05/15 06:40:44;;;;;;;3.28;1.48;;;;;;;;;;5032778;28;20445;-49
2021/05/15 06:43:09;;;;;;;1.88;1.48;;;;;;;;;;5040367;28;20049;-49
2021/05/15 06:45:35;;;;;;;1.75;1.65;;;;;;;;;;5031542;28;20482;-49
2021/05/15 06:48:00;;;;;;;1.60;1.55;;;;;;;;;;5024431;28;20125;-49
2021/05/15 06:50:26;;;;;;;2.40;2.20;;;;;;;;;;5025097;28;20482;-50
2021/05/15 06:52:51;;;;;;;1.90;1.90;;;;;;;;;;5028245;28;20025;-48
2021/05/15 06:55:17;;;;;;;4.63;2.67;;;;;;;;;;5030060;28;20067;-47
2021/05/15 06:57:42;;;;;;;4.93;2.58;;;;;;;;;;5029256;28;20052;-48
2021/05/15 07:00:08;;;;;;;2.83;2.75;;;;;;;;;;5027630;28;20025;-50
2021/05/15 07:02:34;;;;;;;2.03;2.03;;;;;;;;;;5031395;28;20033;-48
2021/05/15 07:05:00;;;;;;;2.00;2.00;;;;;;;;;;5029349;28;20048;-48
2021/05/15 07:07:26;;;;;;;1.83;1.83;;;;;;;;;;5015365;28;20033;-50
2021/05/15 07:09:52;;;;;;;1.92;1.85;;;;;;;;;;5030820;28;20026;-50
2021/05/15 07:12:17;;;;;;;2.15;1.75;;;;;;;;;;5027696;28;20090;-46
2021/05/15 07:14:44;;;;;;;1.80;1.67;;;;;;;;;;5031002;28;20032;-47
2021/05/15 07:17:10;;;;;;;1.30;1.10;;;;;;;;;;5026330;28;20034;-49
2021/05/15 07:19:35;;;;;;;1.00;1.00;;;;;;;;;;5034371;28;20033;-50
2021/05/15 07:22:01;;;;;;;1.40;1.00;;;;;;;;;;5022537;28;20108;-50
2021/05/15 07:24:27;;;;;;;1.00;1.00;;;;;;;;;;5021978;28;20614;-50
2021/05/15 07:26:52;;;;;;;1.90;1.00;;;;;;;;;;5030888;28;20541;-50
2021/05/15 07:29:18;;;;;;;1.00;1.00;;;;;;;;;;5024793;28;20021;-48
2021/05/15 07:31:43;;;;;;;1.05;1.00;;;;;;;;;;5014979;28;20450;-48
2021/05/15 07:34:09;;;;;;;1.02;0.93;;;;;;;;;;5025849;28;20033;-51
2021/05/15 07:36:34;;;;;;;2.25;1.00;;;;;;;;;;5022516;28;20040;-50
2021/05/15 07:39:00;;;;;;;1.35;1.35;;;;;;;;;;5015210;28;20045;-48
2021/05/15 07:41:27;;;;;;;1.00;1.00;;;;;;;;;;5027960;28;20049;-48
2021/05/15 07:43:53;;;;;;;1.92;1.20;;;;;;;;;;5029112;28;20104;-50
2021/05/15 07:46:19;;;;;;;2.47;1.55;;;;;;;;;;5036617;28;20599;-52
2021/05/15 07:48:45;;;;;;;0.90;0.90;;;;;;;;;;5025403;28;20124;-46
2021/05/15 07:51:12;;;;;;;5.68;1.05;;;;;;;;;;5029736;28;20073;-51
2021/05/15 07:53:38;;;;;;;1.38;0.90;;;;;;;;;;5028665;28;20037;-49
2021/05/15 07:56:04;;;;;;;0.90;0.90;;;;;;;;;;5028832;28;20025;-48
2021/05/15 07:58:29;;;;;;;2.47;0.80;;;;;;;;;;5028844;28;20041;-48
2021/05/15 08:00:55;;;;;;;4.97;0.80;;;;;;;;;;5027852;28;20029;-51
2021/05/15 08:03:21;;;;;;;1.58;0.80;;;;;;;;;;5029785;28;20021;-48
2021/05/15 08:05:46;;;;;;;1.77;0.80;;;;;;;;;;5028368;28;20470;-47
2021/05/15 08:08:12;;;;;;;1.05;0.70;;;;;;;;;;5027277;28;20021;-49
2021/05/15 08:10:37;;;;;;;0.75;0.75;;;;;;;;;;5029589;28;20032;-51
2021/05/15 08:13:03;;;;;;;0.70;0.70;;;;;;;;;;5026072;28;20784;-51
2021/05/15 08:15:29;;;;;;;0.80;0.80;;;;;;;;;;5027893;28;20040;-51
2021/05/15 08:17:55;;;;;;;0.70;0.70;;;;;;;;;;5022573;28;20042;-51
2021/05/15 08:20:21;;;;;;;0.80;0.70;;;;;;;;;;5022552;28;20064;-52
2021/05/15 08:22:46;;;;;;;0.70;0.70;;;;;;;;;;5029653;28;20104;-48
2021/05/15 08:25:13;;;;;;;0.98;0.80;;;;;;;;;;5027909;28;20485;-50
2021/05/15 08:27:40;;;;;;;1.55;0.80;;;;;;;;;;5027476;28;20445;-51
2021/05/15 08:30:09;;;;;;;1.77;0.80;;;;;;;;;;5027786;28;20037;-51
2021/05/15 08:32:35;;;;;;;1.27;0.70;;;;;;;;;;5028075;28;20047;-51
2021/05/15 08:35:01;;;;;;;0.70;0.70;;;;;;;;;;5029835;28;20679;-51
2021/05/15 08:37:27;;;;;;;1.10;0.80;;;;;;;;;;5026080;28;20076;-49
2021/05/15 08:39:52;;;;;;;1.23;1.23;;;;;;;;;;5026994;28;20044;-53
2021/05/15 08:42:19;;;;;;;0.70;0.70;;;;;;;;;;5028760;28;20038;-53
2021/05/15 08:44:46;;;;;;;0.70;0.70;;;;;;;;;;5028216;28;20051;-50
2021/05/15 08:47:14;;;;;;;1.20;0.85;;;;;;;;;;5029376;28;20083;-52
2021/05/15 08:49:39;;;;;;;2.00;0.90;;;;;;;;;;5023493;28;20033;-51
2021/05/15 08:52:05;;;;;;;1.75;0.85;;;;;;;;;;5021669;28;20030;-53
2021/05/15 08:54:32;;;;;;;0.60;0.60;;;;;;;;;;5021132;28;20067;-51
2021/05/15 08:56:58;;;;;;;3.83;1.00;;;;;;;;;;5018894;28;20117;-51
2021/05/15 08:59:23;;;;;;;0.70;0.70;;;;;;;;;;5028650;28;20108;-51
2021/05/15 09:01:49;;;;;;;1.15;0.70;;;;;;;;;;5023434;28;20503;-50
2021/05/15 09:04:14;;;;;;;0.70;0.70;;;;;;;;;;5014226;28;20420;-51
2021/05/15 09:06:42;;;;;;;1.02;0.70;;;;;;;;;;5021876;28;20049;-49
2021/05/15 09:09:09;;;;;;;0.70;0.70;;;;;;;;;;5026414;28;20053;-51
2021/05/15 09:11:35;;;;;;;0.60;0.60;;;;;;;;;;5029174;28;20061;-53
2021/05/15 09:14:02;;;;;;;0.70;0.70;;;;;;;;;;5023391;28;20026;-49
2021/05/15 09:16:29;;;;;;;2.63;0.70;;;;;;;;;;5014887;28;20397;-50
2021/05/15 09:19:03;;;;;;;0.88;0.88;;;;;;;;;;5028341;28;20653;-49
2021/05/15 09:21:31;;;;;;;1.05;1.00;;;;;;;;;;5021757;28;20119;-52
2021/05/15 09:23:58;;;;;;;2.15;1.38;;;;;;;;;;5016974;28;20045;-51
2021/05/15 09:26:27;;;;;;;0.90;0.77;;;;;;;;;;5027240;28;20048;-51
2021/05/15 09:28:58;;;;;;;0.70;0.70;;;;;;;;;;5027155;28;21493;-48
2021/05/15 09:31:26;;;;;;;0.70;0.70;;;;;;;;;;5028076;28;20042;-51
2021/05/15 09:33:54;;;;;;;0.70;0.70;;;;;;;;;;5025229;28;20088;-51
2021/05/15 09:36:25;;;;;;;1.55;0.82;;;;;;;;;;5029018;28;20033;-53
2021/05/15 09:38:59;;;;;;;0.70;0.70;;;;;;;;;;5031489;28;20033;-51
2021/05/15 09:41:39;;;;;;;0.60;0.60;;;;;;;;;;5029234;28;20136;-51
2021/05/15 09:44:08;;;;;;;1.10;1.00;;;;;;;;;;5014116;28;20045;-51
2021/05/15 09:46:36;;;;;;;0.98;0.70;;;;;;;;;;5029656;28;20419;-49
2021/05/15 09:49:04;;;;;;;1.50;0.70;;;;;;;;;;5028631;28;20034;-52
2021/05/15 09:51:31;;;;;;;4.13;0.63;;;;;;;;;;5032290;28;20478;-49
2021/05/15 09:54:15;;;;;;;0.63;0.63;;;;;;;;;;5031428;28;20125;-50
2021/05/15 09:56:42;;;;;;;0.80;0.80;;;;;;;;;;5027917;28;20124;-49
2021/05/15 09:59:11;;;;;;;2.53;0.70;;;;;;;;;;5032466;28;20037;-50
2021/05/15 10:01:38;;;;;;;0.90;0.80;;;;;;;;;;5030770;28;20107;-51
2021/05/15 10:04:05;;;;;;;1.55;0.70;;;;;;;;;;5029362;28;20042;-52
2021/05/15 10:06:32;;;;;;;4.72;0.77;;;;;;;;;;5028807;28;20041;-51
2021/05/15 10:08:59;;;;;;;0.75;0.70;;;;;;;;;;5037113;28;20063;-50
2021/05/15 10:11:25;;;;;;;0.70;0.70;;;;;;;;;;5028732;28;20048;-50
2021/05/15 10:13:53;;;;;;;0.70;0.70;;;;;;;;;;5028447;28;20033;-52
2021/05/15 10:16:20;;;;;;;1.10;0.80;;;;;;;;;;5031187;28;20049;-50
2021/05/15 10:18:47;;;;;;;0.90;0.90;;;;;;;;;;5025482;28;20033;-50
2021/05/15 10:21:14;;;;;;;0.60;0.60;;;;;;;;;;5035606;28;20057;-52
2021/05/15 10:23:43;;;;;;;0.60;0.60;;;;;;;;;;5023863;28;20060;-50
2021/05/15 10:26:16;;;;;;;0.70;0.70;;;;;;;;;;5027984;28;20053;-50
2021/05/15 10:28:45;;;;;;;0.70;0.70;;;;;;;;;;5044332;28;20527;-48
2021/05/15 10:31:16;;;;;;;1.83;0.70;;;;;;;;;;5029067;28;20152;-48
2021/05/15 10:33:43;;;;;;;0.60;0.60;;;;;;;;;;5027224;28;20137;-50
2021/05/15 10:36:23;;;;;;;0.80;0.80;;;;;;;;;;5037066;28;20072;-49
2021/05/15 10:38:52;;;;;;;1.20;0.70;;;;;;;;;;5024206;28;20371;-51
2021/05/15 10:41:20;;;;;;;0.68;0.68;;;;;;;;;;5027896;28;20045;-50
2021/05/15 10:43:49;;;;;;;1.17;0.77;;;;;;;;;;5030895;28;20080;-52
2021/05/15 10:46:26;;;;;;;0.70;0.70;;;;;;;;;;5029817;28;20041;-50
2021/05/15 10:48:59;;;;;;;0.60;0.60;;;;;;;;;;5025692;28;20038;-50
2021/05/15 10:51:33;;;;;;;1.40;0.60;;;;;;;;;;5029136;28;20065;-50
2021/05/15 10:54:00;;;;;;;1.02;0.70;;;;;;;;;;5017769;28;20048;-48
2021/05/15 10:56:41;;;;;;;0.70;0.70;;;;;;;;;;5030597;28;20657;-51
2021/05/15 10:59:16;;;;;;;0.95;0.70;;;;;;;;;;5028626;28;20574;-53
2021/05/15 11:01:51;;;;;;;1.58;0.70;;;;;;;;;;5014247;28;20050;-54
2021/05/15 11:04:19;;;;;;;0.70;0.70;;;;;;;;;;5020432;28;20092;-52
2021/05/15 11:07:15;;;;;;;0.65;0.65;;;;;;;;;;5027656;28;20032;-51
2021/05/15 11:10:02;;;;;;;2.63;0.70;;;;;;;;;;5014645;28;20064;-53
2021/05/15 11:12:30;;;;;;;0.70;0.70;;;;;;;;;;5016172;28;20065;-51
2021/05/15 11:15:01;;;;;;;1.27;0.70;;;;;;;;;;5019645;28;20053;-50
2021/05/15 11:17:29;;;;;;;1.92;0.60;;;;;;;;;;5011320;28;20103;-53
2021/05/15 11:20:01;;;;;;;0.60;0.60;;;;;;;;;;5027271;28;20132;-51
2021/05/15 11:22:45;;;;;;;0.63;0.63;;;;;;;;;;5025431;28;20049;-50
2021/05/15 11:25:14;;;;;;;0.60;0.60;;;;;;;;;;5028238;28;20176;-52
2021/05/15 11:27:46;;;;;;;2.17;0.68;;;;;;;;;;5024274;28;20049;-51
2021/05/15 11:30:17;;;;;;;0.70;0.70;;;;;;;;;;5026030;28;20066;-51
2021/05/15 11:32:57;;;;;;;1.30;0.63;;;;;;;;;;5015935;28;20054;-50
2021/05/15 11:35:25;;;;;;;1.55;0.60;;;;;;;;;;5021283;28;20099;-50
2021/05/15 11:38:22;;;;;;;0.65;0.60;;;;;;;;;;5025186;28;20045;-49
2021/05/15 11:40:48;;;;;;;0.70;0.70;;;;;;;;;;4986847;28;20066;-48
2021/05/15 11:43:19;;;;;;;0.70;0.70;;;;;;;;;;4986005;28;20551;-50
2021/05/15 11:45:46;;;;;;;0.68;0.60;;;;;;;;;;4981540;28;20523;-50
2021/05/15 11:48:20;;;;;;;0.60;0.60;;;;;;;;;;4967244;28;20114;-50
2021/05/15 11:50:57;;;;;;;1.10;0.60;;;;;;;;;;4964635;28;20093;-49
2021/05/15 11:53:24;;;;;;;0.60;0.60;;;;;;;;;;4953117;28;20515;-47
2021/05/15 11:55:51;;;;;;;0.60;0.60;;;;;;;;;;4964212;28;20088;-50
2021/05/15 11:58:19;;;;;;;0.85;0.60;;;;;;;;;;4968749;28;20061;-50
2021/05/15 12:00:46;;;;;;;0.60;0.60;;;;;;;;;;4955865;28;20055;-50
2021/05/15 12:03:19;;;;;;;1.08;0.60;;;;;;;;;;4957879;28;20042;-50
2021/05/15 12:05:46;;;;;;;1.75;1.05;;;;;;;;;;4963686;28;20070;-50
2021/05/15 12:08:13;;;;;;;0.50;0.50;;;;;;;;;;4959738;28;20047;-50
2021/05/15 12:10:40;;;;;;;0.55;0.55;;;;;;;;;;4955049;28;20098;-49
2021/05/15 12:13:07;;;;;;;1.10;0.60;;;;;;;;;;4957140;28;20428;-49
2021/05/15 12:15:36;;;;;;;0.60;0.60;;;;;;;;;;4960531;28;20054;-47
2021/05/15 12:18:03;;;;;;;1.17;1.13;;;;;;;;;;5017540;28;20089;-47
2021/05/15 12:20:33;;;;;;;0.60;0.60;;;;;;;;;;5028697;28;20057;-47
2021/05/15 12:23:26;;;;;;;0.60;0.60;;;;;;;;;;5028990;28;20079;-45
2021/05/15 12:25:55;;;;;;;0.68;0.68;;;;;;;;;;5011864;28;20725;-48
2021/05/15 12:28:23;;;;;;;0.80;0.55;;;;;;;;;;5026549;28;20450;-50
2021/05/15 12:30:50;;;;;;;2.83;1.27;;;;;;;;;;5028453;28;20033;-46
2021/05/15 12:33:21;;;;;;;0.60;0.60;;;;;;;;;;5029945;28;20096;-46
2021/05/15 12:36:07;;;;;;;0.80;0.70;;;;;;;;;;5026885;28;20080;-46
2021/05/15 12:38:47;;;;;;;0.70;0.70;;;;;;;;;;5019166;28;20030;-45
2021/05/15 12:41:16;;;;;;;0.60;0.60;;;;;;;;;;5019876;28;20058;-45
2021/05/15 12:43:45;;;;;;;0.60;0.60;;;;;;;;;;5031129;28;20506;-44
2021/05/15 12:46:12;;;;;;;1.10;0.60;;;;;;;;;;5027729;28;20048;-48
2021/05/15 12:48:40;;;;;;;1.23;0.70;;;;;;;;;;5022856;28;20041;-48
2021/05/15 12:51:11;;;;;;;0.60;0.60;;;;;;;;;;5023748;28;20049;-48
2021/05/15 12:53:38;;;;;;;1.05;0.70;;;;;;;;;;5023781;28;20049;-47
2021/05/15 12:56:12;;;;;;;0.60;0.60;;;;;;;;;;5024696;28;20437;-46
2021/05/15 12:58:39;;;;;;;1.65;0.70;;;;;;;;;;5025763;28;20050;-48
2021/05/15 13:01:08;;;;;;;0.60;0.60;;;;;;;;;;5021730;28;20140;-55
2021/05/15 13:03:37;;;;;;;0.80;0.60;;;;;;;;;;5027498;28;20048;-49
2021/05/15 13:06:14;;;;;;;0.60;0.60;;;;;;;;;;5028618;28;20056;-46
2021/05/15 13:08:41;;;;;;;0.60;0.60;;;;;;;;;;5024354;28;20100;-46
2021/05/15 13:11:14;;;;;;;0.75;0.70;;;;;;;;;;5026830;28;20038;-47
2021/05/15 13:13:42;;;;;;;0.63;0.63;;;;;;;;;;5032765;28;20045;-49
2021/05/15 13:16:10;;;;;;;0.60;0.60;;;;;;;;;;5031191;28;20409;-48
2021/05/15 13:18:37;;;;;;;1.50;1.40;;;;;;;;;;5012546;28;20169;-47
2021/05/15 13:21:04;;;;;;;1.05;0.68;;;;;;;;;;5031425;28;20101;-47
2021/05/15 13:23:31;;;;;;;0.60;0.60;;;;;;;;;;5029001;28;20080;-46
2021/05/15 13:25:58;;;;;;;0.60;0.60;;;;;;;;;;5024384;28;20050;-46
2021/05/15 13:28:25;;;;;;;0.60;0.60;;;;;;;;;;5027506;28;20446;-46
2021/05/15 13:30:52;;;;;;;0.60;0.60;;;;;;;;;;5032217;28;20042;-46
2021/05/15 13:33:19;;;;;;;0.65;0.60;;;;;;;;;;5032691;28;20457;-48
2021/05/15 13:35:46;;;;;;;0.60;0.60;;;;;;;;;;5031061;28;20053;-47
2021/05/15 13:38:13;;;;;;;0.88;0.70;;;;;;;;;;5032807;28;20112;-47
2021/05/15 13:40:40;;;;;;;0.60;0.60;;;;;;;;;;5029517;28;20049;-47
2021/05/15 13:43:08;;;;;;;0.80;0.60;;;;;;;;;;5019147;28;20034;-48
2021/05/15 13:45:34;;;;;;;1.55;0.70;;;;;;;;;;5031947;28;20044;-48
2021/05/15 13:48:01;;;;;;;0.65;0.60;;;;;;;;;;5030889;28;20072;-46
2021/05/15 13:50:31;;;;;;;0.68;0.68;;;;;;;;;;5031197;28;20566;-46
2021/05/15 13:52:58;;;;;;;2.85;0.80;;;;;;;;;;5029627;28;20048;-51
2021/05/15 13:55:25;;;;;;;0.70;0.70;;;;;;;;;;5023280;28;20048;-47
2021/05/15 13:57:52;;;;;;;1.25;0.60;;;;;;;;;;5032916;28;20121;-46
2021/05/15 14:00:19;;;;;;;1.38;0.60;;;;;;;;;;5030520;28;20124;-46
2021/05/15 14:02:46;;;;;;;0.90;0.70;;;;;;;;;;5032760;28;20111;-46
2021/05/15 14:05:15;;;;;;;0.75;0.70;;;;;;;;;;5030183;28;20509;-46
2021/05/15 14:07:42;;;;;;;1.63;0.90;;;;;;;;;;5028180;28;20033;-46
2021/05/15 14:10:09;;;;;;;0.73;0.70;;;;;;;;;;5027910;28;20061;-45
2021/05/15 14:12:37;;;;;;;1.55;0.70;;;;;;;;;;5026073;28;20029;-45
2021/05/15 14:15:05;;;;;;;1.45;0.60;;;;;;;;;;5030220;28;20034;-46
2021/05/15 14:17:32;;;;;;;3.83;0.77;;;;;;;;;;5029894;28;20037;-47
2021/05/15 14:20:00;;;;;;;1.52;0.68;;;;;;;;;;5031012;28;20589;-48
2021/05/15 14:22:28;;;;;;;1.52;0.70;;;;;;;;;;5018237;28;20069;-46
2021/05/15 14:24:55;;;;;;;0.60;0.60;;;;;;;;;;5029086;28;20099;-46
2021/05/15 14:27:25;;;;;;;1.25;0.70;;;;;;;;;;5025755;28;20044;-46
2021/05/15 14:29:54;;;;;;;1.35;0.77;;;;;;;;;;5022491;28;20034;-48
2021/05/15 14:32:20;;;;;;;1.00;0.65;;;;;;;;;;5021362;28;20505;-47
2021/05/15 14:34:47;;;;;;;1.20;0.80;;;;;;;;;;5032376;28;20596;-48
2021/05/15 14:37:14;;;;;;;3.60;0.80;;;;;;;;;;5030262;28;20037;-46
2021/05/15 14:39:41;;;;;;;0.77;0.70;;;;;;;;;;5030498;28;20520;-45
2021/05/15 14:42:11;;;;;;;0.60;0.60;;;;;;;;;;5030062;28;20107;-46
2021/05/15 14:44:38;;;;;;;5.60;0.80;;;;;;;;;;5030365;28;20087;-46
2021/05/15 14:47:05;;;;;;;0.60;0.60;;;;;;;;;;5030410;28;20546;-47